createdAt,value
2018-07-12T00:00:24.971Z,1010.81
2018-07-12T00:00:51.102Z,1010.84
2018-07-12T00:01:17.268Z,1010.81
2018-07-12T00:01:43.404Z,1010.82
2018-07-12T00:02:09.544Z,1010.85
2018-07-12T00:02:36.282Z,1010.86
2018-07-12T00:03:02.453Z,1010.86
2018-07-12T00:03:28.611Z,1010.83
2018-07-12T00:03:54.746Z,1010.85
2018-07-12T00:04:20.882Z,1010.88
2018-07-12T00:04:47.047Z,1010.86
2018-07-12T00:05:13.183Z,1010.86
2018-07-12T00:05:39.325Z,1010.87
2018-07-12T00:06:07.094Z,1010.89
2018-07-12T00:06:34.845Z,1010.86
2018-07-12T00:07:01.875Z,1010.9
2018-07-12T00:07:29.256Z,1010.86
2018-07-12T00:07:55.727Z,1010.89
2018-07-12T00:08:22.287Z,1010.89
2018-07-12T00:08:48.431Z,1010.93
2018-07-12T00:09:14.561Z,1010.93
2018-07-12T00:09:40.705Z,1010.92
2018-07-12T00:10:06.913Z,1010.92
2018-07-12T00:10:33.045Z,1010.94
2018-07-12T00:10:59.205Z,1010.92
2018-07-12T00:11:25.336Z,1010.91
2018-07-12T00:11:51.478Z,1010.93
2018-07-12T00:12:17.624Z,1010.97
2018-07-12T00:12:43.755Z,1010.92
2018-07-12T00:13:09.889Z,1010.97
2018-07-12T00:13:36.032Z,1010.96
2018-07-12T00:14:02.171Z,1010.93
2018-07-12T00:14:28.310Z,1010.96
2018-07-12T00:14:54.512Z,1010.93
2018-07-12T00:15:20.646Z,1010.94
2018-07-12T00:15:46.780Z,1010.9
2018-07-12T00:16:12.928Z,1010.89
2018-07-12T00:16:39.088Z,1010.91
2018-07-12T00:17:05.225Z,1010.95
2018-07-12T00:17:31.365Z,1010.93
2018-07-12T00:17:57.525Z,1010.9
2018-07-12T00:18:23.694Z,1010.92
2018-07-12T00:18:49.825Z,1010.88
2018-07-12T00:19:15.960Z,1010.94
2018-07-12T00:19:42.103Z,1010.92
2018-07-12T00:20:08.260Z,1010.91
2018-07-12T00:20:34.427Z,1010.89
2018-07-12T00:21:00.563Z,1010.91
2018-07-12T00:21:26.701Z,1010.89
2018-07-12T00:21:52.855Z,1010.94
2018-07-12T00:22:18.998Z,1010.91
2018-07-12T00:22:45.131Z,1010.91
2018-07-12T00:23:11.267Z,1010.9
2018-07-12T00:23:37.403Z,1010.92
2018-07-12T00:24:03.542Z,1010.9
2018-07-12T00:24:29.681Z,1010.93
2018-07-12T00:24:55.814Z,1010.89
2018-07-12T00:25:21.952Z,1010.9
2018-07-12T00:25:48.093Z,1010.91
2018-07-12T00:26:14.251Z,1010.87
2018-07-12T00:26:40.407Z,1010.85
2018-07-12T00:27:06.538Z,1010.88
2018-07-12T00:27:32.687Z,1010.84
2018-07-12T00:27:58.818Z,1010.83
2018-07-12T00:28:24.960Z,1010.84
2018-07-12T00:28:51.101Z,1010.83
2018-07-12T00:29:17.238Z,1010.81
2018-07-12T00:29:43.377Z,1010.8
2018-07-12T00:30:09.514Z,1010.8
2018-07-12T00:30:35.682Z,1010.84
2018-07-12T00:31:01.821Z,1010.83
2018-07-12T00:31:27.956Z,1010.82
2018-07-12T00:31:54.117Z,1010.79
2018-07-12T00:32:20.313Z,1010.81
2018-07-12T00:32:46.443Z,1010.78
2018-07-12T00:33:12.580Z,1010.82
2018-07-12T00:33:38.835Z,1010.79
2018-07-12T00:34:04.895Z,1010.81
2018-07-12T00:34:31.025Z,1010.82
2018-07-12T00:34:57.185Z,1010.84
2018-07-12T00:35:23.371Z,1010.82
2018-07-12T00:35:49.516Z,1010.82
2018-07-12T00:36:15.650Z,1010.78
2018-07-12T00:36:41.793Z,1010.83
2018-07-12T00:37:07.928Z,1010.81
2018-07-12T00:37:34.063Z,1010.82
2018-07-12T00:38:00.201Z,1010.79
2018-07-12T00:38:26.332Z,1010.81
2018-07-12T00:38:52.470Z,1010.8
2018-07-12T00:39:18.613Z,1010.78
2018-07-12T00:39:44.746Z,1010.79
2018-07-12T00:40:10.883Z,1010.79
2018-07-12T00:40:37.017Z,1010.76
2018-07-12T00:41:03.156Z,1010.77
2018-07-12T00:41:29.335Z,1010.81
2018-07-12T00:41:55.472Z,1010.78
2018-07-12T00:42:21.615Z,1010.74
2018-07-12T00:42:47.742Z,1010.78
2018-07-12T00:43:13.884Z,1010.75
2018-07-12T00:43:40.023Z,1010.74
2018-07-12T00:44:06.169Z,1010.74
2018-07-12T00:44:32.325Z,1010.8
2018-07-12T00:44:58.497Z,1010.76
2018-07-12T00:45:24.644Z,1010.74
2018-07-12T00:45:50.804Z,1010.77
2018-07-12T00:46:16.943Z,1010.8
2018-07-12T00:46:43.074Z,1010.78
2018-07-12T00:47:09.296Z,1010.78
2018-07-12T00:47:35.427Z,1010.77
2018-07-12T00:48:01.598Z,1010.79
2018-07-12T00:48:27.765Z,1010.77
2018-07-12T00:48:53.909Z,1010.77
2018-07-12T00:49:20.065Z,1010.8
2018-07-12T00:49:46.197Z,1010.79
2018-07-12T00:50:12.335Z,1010.81
2018-07-12T00:50:38.503Z,1010.81
2018-07-12T00:51:04.640Z,1010.8
2018-07-12T00:51:30.785Z,1010.8
2018-07-12T00:51:56.919Z,1010.81
2018-07-12T00:52:23.060Z,1010.82
2018-07-12T00:52:49.210Z,1010.8
2018-07-12T00:53:15.367Z,1010.81
2018-07-12T00:53:41.526Z,1010.8
2018-07-12T00:54:07.667Z,1010.81
2018-07-12T00:54:33.806Z,1010.77
2018-07-12T00:54:59.937Z,1010.8
2018-07-12T00:55:26.077Z,1010.81
2018-07-12T00:55:52.208Z,1010.79
2018-07-12T00:56:18.352Z,1010.82
2018-07-12T00:56:44.495Z,1010.79
2018-07-12T00:57:10.680Z,1010.84
2018-07-12T00:57:36.812Z,1010.84
2018-07-12T00:58:02.959Z,1010.86
2018-07-12T00:58:29.099Z,1010.79
2018-07-12T00:58:55.234Z,1010.79
2018-07-12T00:59:21.373Z,1010.83
2018-07-12T00:59:47.544Z,1010.81
2018-07-12T01:00:13.675Z,1010.8
2018-07-12T01:00:39.815Z,1010.8
2018-07-12T01:01:05.952Z,1010.78
2018-07-12T01:01:32.088Z,1010.8
2018-07-12T01:01:58.229Z,1010.77
2018-07-12T01:02:24.378Z,1010.78
2018-07-12T01:02:50.518Z,1010.75
2018-07-12T01:03:16.659Z,1010.77
2018-07-12T01:03:42.814Z,1010.76
2018-07-12T01:04:08.954Z,1010.73
2018-07-12T01:04:35.100Z,1010.75
2018-07-12T01:05:01.240Z,1010.76
2018-07-12T01:05:27.374Z,1010.78
2018-07-12T01:05:53.511Z,1010.73
2018-07-12T01:06:19.653Z,1010.75
2018-07-12T01:06:45.791Z,1010.74
2018-07-12T01:07:11.933Z,1010.74
2018-07-12T01:07:38.070Z,1010.77
2018-07-12T01:08:04.199Z,1010.78
2018-07-12T01:08:30.342Z,1010.75
2018-07-12T01:08:56.475Z,1010.76
2018-07-12T01:09:22.615Z,1010.79
2018-07-12T01:09:48.773Z,1010.78
2018-07-12T01:10:14.910Z,1010.74
2018-07-12T01:10:41.078Z,1010.78
2018-07-12T01:11:07.262Z,1010.78
2018-07-12T01:11:33.419Z,1010.78
2018-07-12T01:11:59.565Z,1010.76
2018-07-12T01:12:25.707Z,1010.8
2018-07-12T01:12:51.839Z,1010.78
2018-07-12T01:13:17.978Z,1010.79
2018-07-12T01:13:44.123Z,1010.78
2018-07-12T01:14:10.261Z,1010.79
2018-07-12T01:14:36.395Z,1010.79
2018-07-12T01:15:02.531Z,1010.81
2018-07-12T01:15:28.670Z,1010.78
2018-07-12T01:15:54.832Z,1010.78
2018-07-12T01:16:20.994Z,1010.8
2018-07-12T01:16:47.137Z,1010.74
2018-07-12T01:17:13.271Z,1010.78
2018-07-12T01:17:39.408Z,1010.76
2018-07-12T01:18:05.582Z,1010.75
2018-07-12T01:18:31.724Z,1010.73
2018-07-12T01:18:57.866Z,1010.77
2018-07-12T01:19:24.001Z,1010.75
2018-07-12T01:19:50.142Z,1010.78
2018-07-12T01:20:16.310Z,1010.73
2018-07-12T01:20:42.471Z,1010.74
2018-07-12T01:21:08.628Z,1010.74
2018-07-12T01:21:34.775Z,1010.73
2018-07-12T01:22:00.917Z,1010.73
2018-07-12T01:22:27.047Z,1010.75
2018-07-12T01:22:53.186Z,1010.75
2018-07-12T01:23:19.327Z,1010.75
2018-07-12T01:23:45.469Z,1010.77
2018-07-12T01:24:11.606Z,1010.79
2018-07-12T01:24:37.774Z,1010.74
2018-07-12T01:25:03.911Z,1010.69
2018-07-12T01:25:30.058Z,1010.69
2018-07-12T01:25:56.186Z,1010.7
2018-07-12T01:26:22.328Z,1010.73
2018-07-12T01:26:48.485Z,1010.7
2018-07-12T01:27:14.701Z,1010.72
2018-07-12T01:27:40.838Z,1010.66
2018-07-12T01:28:06.968Z,1010.69
2018-07-12T01:28:33.104Z,1010.71
2018-07-12T01:28:59.267Z,1010.69
2018-07-12T01:29:25.422Z,1010.72
2018-07-12T01:29:51.553Z,1010.7
2018-07-12T01:30:17.694Z,1010.7
2018-07-12T01:30:43.835Z,1010.71
2018-07-12T01:31:09.969Z,1010.67
2018-07-12T01:31:36.102Z,1010.68
2018-07-12T01:32:02.246Z,1010.66
2018-07-12T01:32:28.378Z,1010.66
2018-07-12T01:32:54.518Z,1010.66
2018-07-12T01:33:20.659Z,1010.69
2018-07-12T01:33:46.805Z,1010.7
2018-07-12T01:34:12.939Z,1010.69
2018-07-12T01:34:39.074Z,1010.67
2018-07-12T01:35:05.208Z,1010.7
2018-07-12T01:35:31.371Z,1010.73
2018-07-12T01:35:57.520Z,1010.68
2018-07-12T01:36:23.673Z,1010.7
2018-07-12T01:36:49.815Z,1010.68
2018-07-12T01:37:15.973Z,1010.63
2018-07-12T01:37:42.111Z,1010.66
2018-07-12T01:38:08.250Z,1010.64
2018-07-12T01:38:34.387Z,1010.61
2018-07-12T01:39:00.524Z,1010.6
2018-07-12T01:39:26.659Z,1010.6
2018-07-12T01:39:52.799Z,1010.59
2018-07-12T01:40:18.941Z,1010.58
2018-07-12T01:40:45.074Z,1010.6
2018-07-12T01:41:11.214Z,1010.6
2018-07-12T01:41:37.352Z,1010.61
2018-07-12T01:42:03.496Z,1010.6
2018-07-12T01:42:29.636Z,1010.66
2018-07-12T01:42:55.796Z,1010.62
2018-07-12T01:43:21.939Z,1010.67
2018-07-12T01:43:48.083Z,1010.67
2018-07-12T01:44:14.218Z,1010.69
2018-07-12T01:44:40.362Z,1010.7
2018-07-12T01:45:06.498Z,1010.71
2018-07-12T01:45:32.681Z,1010.72
2018-07-12T01:45:58.821Z,1010.73
2018-07-12T01:46:24.976Z,1010.73
2018-07-12T01:46:51.113Z,1010.74
2018-07-12T01:47:17.251Z,1010.74
2018-07-12T01:47:43.388Z,1010.76
2018-07-12T01:48:09.546Z,1010.72
2018-07-12T01:48:35.690Z,1010.77
2018-07-12T01:49:01.834Z,1010.76
2018-07-12T01:49:27.965Z,1010.74
2018-07-12T01:49:54.104Z,1010.78
2018-07-12T01:50:20.264Z,1010.79
2018-07-12T01:50:46.400Z,1010.81
2018-07-12T01:51:12.540Z,1010.78
2018-07-12T01:51:38.681Z,1010.79
2018-07-12T01:52:04.817Z,1010.84
2018-07-12T01:52:30.978Z,1010.84
2018-07-12T01:52:57.136Z,1010.83
2018-07-12T01:53:23.265Z,1010.82
2018-07-12T01:53:49.405Z,1010.86
2018-07-12T01:54:15.551Z,1010.8
2018-07-12T01:54:41.684Z,1010.84
2018-07-12T01:55:07.827Z,1010.85
2018-07-12T01:55:33.957Z,1010.86
2018-07-12T01:56:00.101Z,1010.84
2018-07-12T01:56:26.243Z,1010.86
2018-07-12T01:56:52.374Z,1010.88
2018-07-12T01:57:18.517Z,1010.86
2018-07-12T01:57:44.679Z,1010.85
2018-07-12T01:58:10.814Z,1010.82
2018-07-12T01:58:37.004Z,1010.85
2018-07-12T01:59:03.148Z,1010.82
2018-07-12T01:59:29.280Z,1010.84
2018-07-12T01:59:55.422Z,1010.82
2018-07-12T02:00:21.581Z,1010.81
2018-07-12T02:00:47.734Z,1010.81
2018-07-12T02:01:13.871Z,1010.79
2018-07-12T02:01:40.037Z,1010.76
2018-07-12T02:02:06.179Z,1010.75
2018-07-12T02:02:32.311Z,1010.73
2018-07-12T02:02:58.451Z,1010.76
2018-07-12T02:03:24.591Z,1010.71
2018-07-12T02:03:50.733Z,1010.7
2018-07-12T02:04:16.869Z,1010.69
2018-07-12T02:04:43.010Z,1010.73
2018-07-12T02:05:09.145Z,1010.7
2018-07-12T02:05:35.307Z,1010.68
2018-07-12T02:06:01.437Z,1010.68
2018-07-12T02:06:27.574Z,1010.67
2018-07-12T02:06:53.759Z,1010.65
2018-07-12T02:07:19.895Z,1010.62
2018-07-12T02:07:46.059Z,1010.64
2018-07-12T02:08:12.228Z,1010.68
2018-07-12T02:08:38.362Z,1010.67
2018-07-12T02:09:04.504Z,1010.65
2018-07-12T02:09:30.637Z,1010.67
2018-07-12T02:09:56.797Z,1010.68
2018-07-12T02:10:22.960Z,1010.67
2018-07-12T02:10:49.101Z,1010.67
2018-07-12T02:11:15.238Z,1010.66
2018-07-12T02:11:41.373Z,1010.65
2018-07-12T02:12:07.513Z,1010.65
2018-07-12T02:12:33.680Z,1010.65
2018-07-12T02:12:59.821Z,1010.66
2018-07-12T02:13:25.997Z,1010.65
2018-07-12T02:13:52.138Z,1010.66
2018-07-12T02:14:18.301Z,1010.69
2018-07-12T02:14:44.435Z,1010.71
2018-07-12T02:15:10.605Z,1010.72
2018-07-12T02:15:36.742Z,1010.66
2018-07-12T02:16:02.881Z,1010.71
2018-07-12T02:16:29.035Z,1010.71
2018-07-12T02:16:55.225Z,1010.69
2018-07-12T02:17:21.352Z,1010.7
2018-07-12T02:17:47.488Z,1010.71
2018-07-12T02:18:13.626Z,1010.65
2018-07-12T02:18:39.763Z,1010.68
2018-07-12T02:19:05.929Z,1010.64
2018-07-12T02:19:32.068Z,1010.68
2018-07-12T02:19:58.202Z,1010.68
2018-07-12T02:20:24.342Z,1010.65
2018-07-12T02:20:50.478Z,1010.69
2018-07-12T02:21:16.625Z,1010.69
2018-07-12T02:21:42.782Z,1010.65
2018-07-12T02:22:08.912Z,1010.64
2018-07-12T02:22:35.053Z,1010.66
2018-07-12T02:23:01.191Z,1010.68
2018-07-12T02:23:27.330Z,1010.69
2018-07-12T02:23:53.461Z,1010.64
2018-07-12T02:24:19.607Z,1010.69
2018-07-12T02:24:45.763Z,1010.69
2018-07-12T02:25:11.919Z,1010.65
2018-07-12T02:25:38.060Z,1010.65
2018-07-12T02:26:04.215Z,1010.62
2018-07-12T02:26:30.341Z,1010.65
2018-07-12T02:26:56.994Z,1010.66
2018-07-12T02:27:23.158Z,1010.66
2018-07-12T02:27:49.295Z,1010.64
2018-07-12T02:28:15.432Z,1010.69
2018-07-12T02:28:41.570Z,1010.67
2018-07-12T02:29:07.705Z,1010.65
2018-07-12T02:29:33.846Z,1010.68
2018-07-12T02:29:59.986Z,1010.68
2018-07-12T02:30:26.151Z,1010.65
2018-07-12T02:30:52.332Z,1010.66
2018-07-12T02:31:18.518Z,1010.62
2018-07-12T02:31:44.679Z,1010.66
2018-07-12T02:32:10.819Z,1010.65
2018-07-12T02:32:36.956Z,1010.64
2018-07-12T02:33:03.143Z,1010.64
2018-07-12T02:33:29.276Z,1010.67
2018-07-12T02:33:55.469Z,1010.63
2018-07-12T02:34:21.606Z,1010.68
2018-07-12T02:34:47.770Z,1010.7
2018-07-12T02:35:14.049Z,1010.69
2018-07-12T02:35:40.127Z,1010.68
2018-07-12T02:36:06.260Z,1010.72
2018-07-12T02:36:32.401Z,1010.71
2018-07-12T02:36:58.569Z,1010.68
2018-07-12T02:37:24.754Z,1010.73
2018-07-12T02:37:50.884Z,1010.74
2018-07-12T02:38:17.058Z,1010.74
2018-07-12T02:38:43.218Z,1010.73
2018-07-12T02:39:09.431Z,1010.74
2018-07-12T02:39:35.611Z,1010.71
2018-07-12T02:40:01.753Z,1010.72
2018-07-12T02:40:27.935Z,1010.77
2018-07-12T02:40:54.108Z,1010.72
2018-07-12T02:41:20.264Z,1010.73
2018-07-12T02:41:46.515Z,1010.73
2018-07-12T02:42:12.700Z,1010.76
2018-07-12T02:42:38.860Z,1010.71
2018-07-12T02:43:05.020Z,1010.73
2018-07-12T02:43:31.178Z,1010.75
2018-07-12T02:43:57.370Z,1010.73
2018-07-12T02:44:23.528Z,1010.72
2018-07-12T02:44:49.666Z,1010.71
2018-07-12T02:45:15.839Z,1010.7
2018-07-12T02:45:42.011Z,1010.68
2018-07-12T02:46:08.188Z,1010.69
2018-07-12T02:46:34.332Z,1010.71
2018-07-12T02:47:00.471Z,1010.72
2018-07-12T02:47:26.608Z,1010.67
2018-07-12T02:47:52.781Z,1010.69
2018-07-12T02:48:18.984Z,1010.69
2018-07-12T02:48:45.140Z,1010.66
2018-07-12T02:49:11.321Z,1010.69
2018-07-12T02:49:37.481Z,1010.71
2018-07-12T02:50:03.649Z,1010.68
2018-07-12T02:50:29.849Z,1010.66
2018-07-12T02:50:56.003Z,1010.65
2018-07-12T02:51:22.165Z,1010.65
2018-07-12T02:51:48.302Z,1010.65
2018-07-12T02:52:14.443Z,1010.66
2018-07-12T02:52:40.575Z,1010.67
2018-07-12T02:53:06.740Z,1010.64
2018-07-12T02:53:32.920Z,1010.62
2018-07-12T02:53:59.056Z,1010.66
2018-07-12T02:54:25.220Z,1010.64
2018-07-12T02:54:51.355Z,1010.63
2018-07-12T02:55:17.588Z,1010.64
2018-07-12T02:55:43.730Z,1010.64
2018-07-12T02:56:09.909Z,1010.6
2018-07-12T02:56:36.067Z,1010.63
2018-07-12T02:57:02.233Z,1010.63
2018-07-12T02:57:28.391Z,1010.66
2018-07-12T02:57:54.556Z,1010.6
2018-07-12T02:58:20.691Z,1010.65
2018-07-12T02:58:46.877Z,1010.63
2018-07-12T02:59:13.069Z,1010.63
2018-07-12T02:59:39.234Z,1010.63
2018-07-12T03:00:05.368Z,1010.64
2018-07-12T03:00:31.528Z,1010.69
2018-07-12T03:00:57.786Z,1010.66
2018-07-12T03:01:23.996Z,1010.65
2018-07-12T03:01:50.129Z,1010.69
2018-07-12T03:02:16.287Z,1010.67
2018-07-12T03:02:42.450Z,1010.7
2018-07-12T03:03:08.614Z,1010.67
2018-07-12T03:03:34.795Z,1010.7
2018-07-12T03:04:00.960Z,1010.7
2018-07-12T03:04:27.128Z,1010.67
2018-07-12T03:04:53.271Z,1010.67
2018-07-12T03:05:19.435Z,1010.69
2018-07-12T03:05:45.644Z,1010.66
2018-07-12T03:06:11.820Z,1010.64
2018-07-12T03:06:37.964Z,1010.67
2018-07-12T03:07:04.124Z,1010.68
2018-07-12T03:07:30.283Z,1010.66
2018-07-12T03:07:56.419Z,1010.67
2018-07-12T03:08:22.659Z,1010.64
2018-07-12T03:08:48.821Z,1010.68
2018-07-12T03:09:15.005Z,1010.67
2018-07-12T03:09:41.169Z,1010.65
2018-07-12T03:10:07.311Z,1010.67
2018-07-12T03:10:33.465Z,1010.64
2018-07-12T03:10:59.634Z,1010.66
2018-07-12T03:11:25.795Z,1010.7
2018-07-12T03:11:51.937Z,1010.64
2018-07-12T03:12:18.109Z,1010.66
2018-07-12T03:12:44.332Z,1010.67
2018-07-12T03:13:10.497Z,1010.66
2018-07-12T03:13:36.633Z,1010.67
2018-07-12T03:14:02.767Z,1010.67
2018-07-12T03:14:28.929Z,1010.66
2018-07-12T03:14:55.071Z,1010.67
2018-07-12T03:15:21.230Z,1010.68
2018-07-12T03:15:47.575Z,1010.68
2018-07-12T03:16:13.860Z,1010.69
2018-07-12T03:16:40.143Z,1010.69
2018-07-12T03:17:06.441Z,1010.67
2018-07-12T03:17:32.655Z,1010.69
2018-07-12T03:17:58.813Z,1010.65
2018-07-12T03:18:24.980Z,1010.65
2018-07-12T03:18:51.172Z,1010.7
2018-07-12T03:19:17.366Z,1010.66
2018-07-12T03:19:43.497Z,1010.66
2018-07-12T03:20:09.631Z,1010.71
2018-07-12T03:20:35.766Z,1010.68
2018-07-12T03:21:01.926Z,1010.72
2018-07-12T03:21:28.090Z,1010.69
2018-07-12T03:21:54.250Z,1010.67
2018-07-12T03:22:20.441Z,1010.71
2018-07-12T03:22:46.577Z,1010.73
2018-07-12T03:23:12.753Z,1010.73
2018-07-12T03:23:38.886Z,1010.69
2018-07-12T03:24:05.065Z,1010.68
2018-07-12T03:24:31.223Z,1010.67
2018-07-12T03:24:57.352Z,1010.68
2018-07-12T03:25:23.498Z,1010.7
2018-07-12T03:25:49.636Z,1010.65
2018-07-12T03:26:15.781Z,1010.65
2018-07-12T03:26:41.967Z,1010.68
2018-07-12T03:27:08.113Z,1010.66
2018-07-12T03:27:34.243Z,1010.65
2018-07-12T03:28:00.398Z,1010.65
2018-07-12T03:28:26.535Z,1010.68
2018-07-12T03:28:52.672Z,1010.66
2018-07-12T03:29:18.834Z,1010.65
2018-07-12T03:29:44.971Z,1010.7
2018-07-12T03:30:11.108Z,1010.64
2018-07-12T03:30:37.294Z,1010.64
2018-07-12T03:31:03.455Z,1010.64
2018-07-12T03:31:29.596Z,1010.66
2018-07-12T03:31:55.760Z,1010.68
2018-07-12T03:32:21.937Z,1010.65
2018-07-12T03:32:48.071Z,1010.63
2018-07-12T03:33:14.216Z,1010.67
2018-07-12T03:33:40.357Z,1010.65
2018-07-12T03:34:06.495Z,1010.67
2018-07-12T03:34:32.629Z,1010.69
2018-07-12T03:34:58.763Z,1010.67
2018-07-12T03:35:24.925Z,1010.65
2018-07-12T03:35:51.089Z,1010.67
2018-07-12T03:36:17.229Z,1010.62
2018-07-12T03:36:43.369Z,1010.63
2018-07-12T03:37:09.498Z,1010.65
2018-07-12T03:37:35.638Z,1010.65
2018-07-12T03:38:01.771Z,1010.66
2018-07-12T03:38:27.918Z,1010.65
2018-07-12T03:38:54.046Z,1010.62
2018-07-12T03:39:20.188Z,1010.64
2018-07-12T03:39:46.332Z,1010.68
2018-07-12T03:40:12.488Z,1010.69
2018-07-12T03:40:38.755Z,1010.69
2018-07-12T03:41:04.791Z,1010.65
2018-07-12T03:41:30.928Z,1010.65
2018-07-12T03:41:57.059Z,1010.69
2018-07-12T03:42:23.203Z,1010.68
2018-07-12T03:42:49.338Z,1010.64
2018-07-12T03:43:15.488Z,1010.66
2018-07-12T03:43:41.617Z,1010.66
2018-07-12T03:44:07.761Z,1010.67
2018-07-12T03:44:33.893Z,1010.68
2018-07-12T03:45:00.068Z,1010.68
2018-07-12T03:45:26.244Z,1010.7
2018-07-12T03:45:52.391Z,1010.7
2018-07-12T03:46:18.550Z,1010.72
2018-07-12T03:46:44.713Z,1010.7
2018-07-12T03:47:10.850Z,1010.69
2018-07-12T03:47:37.018Z,1010.7
2018-07-12T03:48:03.157Z,1010.68
2018-07-12T03:48:29.291Z,1010.69
2018-07-12T03:48:55.454Z,1010.66
2018-07-12T03:49:21.587Z,1010.69
2018-07-12T03:49:47.726Z,1010.7
2018-07-12T03:50:13.869Z,1010.71
2018-07-12T03:50:40.000Z,1010.7
2018-07-12T03:51:06.145Z,1010.71
2018-07-12T03:51:32.275Z,1010.7
2018-07-12T03:51:58.419Z,1010.7
2018-07-12T03:52:24.552Z,1010.68
2018-07-12T03:52:50.691Z,1010.7
2018-07-12T03:53:16.825Z,1010.69
2018-07-12T03:53:42.987Z,1010.68
2018-07-12T03:54:09.124Z,1010.69
2018-07-12T03:54:35.286Z,1010.69
2018-07-12T03:55:01.456Z,1010.67
2018-07-12T03:55:27.593Z,1010.69
2018-07-12T03:55:53.733Z,1010.68
2018-07-12T03:56:19.897Z,1010.68
2018-07-12T03:56:46.033Z,1010.7
2018-07-12T03:57:12.167Z,1010.68
2018-07-12T03:57:38.313Z,1010.69
2018-07-12T03:58:04.469Z,1010.7
2018-07-12T03:58:30.616Z,1010.72
2018-07-12T03:58:56.751Z,1010.7
2018-07-12T03:59:22.919Z,1010.73
2018-07-12T03:59:49.051Z,1010.7
2018-07-12T04:00:15.285Z,1010.72
2018-07-12T04:00:41.425Z,1010.7
2018-07-12T04:01:07.588Z,1010.76
2018-07-12T04:01:33.743Z,1010.69
2018-07-12T04:01:59.908Z,1010.72
2018-07-12T04:02:26.045Z,1010.74
2018-07-12T04:02:52.207Z,1010.75
2018-07-12T04:03:18.353Z,1010.78
2018-07-12T04:03:44.483Z,1010.71
2018-07-12T04:04:10.615Z,1010.73
2018-07-12T04:04:36.758Z,1010.78
2018-07-12T04:05:02.915Z,1010.74
2018-07-12T04:05:29.048Z,1010.76
2018-07-12T04:05:55.188Z,1010.77
2018-07-12T04:06:21.352Z,1010.79
2018-07-12T04:06:47.492Z,1010.76
2018-07-12T04:07:13.619Z,1010.83
2018-07-12T04:07:39.758Z,1010.79
2018-07-12T04:08:05.894Z,1010.78
2018-07-12T04:08:32.048Z,1010.82
2018-07-12T04:08:58.183Z,1010.82
2018-07-12T04:09:24.350Z,1010.78
2018-07-12T04:09:50.484Z,1010.84
2018-07-12T04:10:16.633Z,1010.83
2018-07-12T04:10:42.787Z,1010.8
2018-07-12T04:11:08.974Z,1010.84
2018-07-12T04:11:35.133Z,1010.78
2018-07-12T04:12:01.271Z,1010.84
2018-07-12T04:12:27.404Z,1010.84
2018-07-12T04:12:53.546Z,1010.85
2018-07-12T04:13:19.677Z,1010.83
2018-07-12T04:13:45.814Z,1010.83
2018-07-12T04:14:11.953Z,1010.88
2018-07-12T04:14:38.138Z,1010.86
2018-07-12T04:15:04.279Z,1010.82
2018-07-12T04:15:30.419Z,1010.84
2018-07-12T04:15:56.553Z,1010.87
2018-07-12T04:16:22.741Z,1010.86
2018-07-12T04:16:48.876Z,1010.86
2018-07-12T04:17:15.039Z,1010.89
2018-07-12T04:17:41.173Z,1010.87
2018-07-12T04:18:07.315Z,1010.88
2018-07-12T04:18:33.456Z,1010.86
2018-07-12T04:18:59.638Z,1010.86
2018-07-12T04:19:25.773Z,1010.86
2018-07-12T04:19:51.911Z,1010.88
2018-07-12T04:20:18.054Z,1010.88
2018-07-12T04:20:44.197Z,1010.86
2018-07-12T04:21:10.330Z,1010.86
2018-07-12T04:21:36.469Z,1010.87
2018-07-12T04:22:02.604Z,1010.87
2018-07-12T04:22:28.735Z,1010.88
2018-07-12T04:22:54.897Z,1010.92
2018-07-12T04:23:21.041Z,1010.87
2018-07-12T04:23:47.171Z,1010.93
2018-07-12T04:24:13.308Z,1010.93
2018-07-12T04:24:39.444Z,1010.95
2018-07-12T04:25:05.608Z,1010.96
2018-07-12T04:25:31.747Z,1010.97
2018-07-12T04:25:57.884Z,1010.96
2018-07-12T04:26:24.024Z,1011
2018-07-12T04:26:50.167Z,1010.97
2018-07-12T04:27:16.298Z,1010.99
2018-07-12T04:27:42.430Z,1010.98
2018-07-12T04:28:08.574Z,1011.03
2018-07-12T04:28:34.716Z,1011.03
2018-07-12T04:29:00.853Z,1011.02
2018-07-12T04:29:26.992Z,1010.97
2018-07-12T04:29:53.123Z,1011.03
2018-07-12T04:30:19.264Z,1011.03
2018-07-12T04:30:45.396Z,1011.05
2018-07-12T04:31:11.577Z,1011.04
2018-07-12T04:31:37.739Z,1011.04
2018-07-12T04:32:03.881Z,1011.05
2018-07-12T04:32:30.016Z,1011.04
2018-07-12T04:32:56.154Z,1011.04
2018-07-12T04:33:22.286Z,1011.05
2018-07-12T04:33:48.450Z,1011.03
2018-07-12T04:34:14.584Z,1010.98
2018-07-12T04:34:40.780Z,1011.03
2018-07-12T04:35:06.876Z,1011.02
2018-07-12T04:35:33.037Z,1011.04
2018-07-12T04:35:59.191Z,1011.02
2018-07-12T04:36:25.333Z,1010.99
2018-07-12T04:36:51.467Z,1011.03
2018-07-12T04:37:17.629Z,1011.03
2018-07-12T04:37:43.791Z,1011.05
2018-07-12T04:38:09.899Z,1011.05
2018-07-12T04:38:36.036Z,1011.08
2018-07-12T04:39:02.183Z,1011.08
2018-07-12T04:39:28.319Z,1011.05
2018-07-12T04:39:54.483Z,1011.06
2018-07-12T04:40:20.627Z,1011.08
2018-07-12T04:40:46.770Z,1011.07
2018-07-12T04:41:12.929Z,1011.05
2018-07-12T04:41:39.068Z,1011.08
2018-07-12T04:42:05.207Z,1011.02
2018-07-12T04:42:31.346Z,1011.05
2018-07-12T04:42:57.483Z,1011.06
2018-07-12T04:43:23.615Z,1011.06
2018-07-12T04:43:49.762Z,1011.04
2018-07-12T04:44:15.945Z,1011.08
2018-07-12T04:44:42.081Z,1011.06
2018-07-12T04:45:08.220Z,1011.1
2018-07-12T04:45:34.388Z,1011.06
2018-07-12T04:46:00.548Z,1011.06
2018-07-12T04:46:26.681Z,1011.06
2018-07-12T04:46:52.821Z,1011.11
2018-07-12T04:47:18.956Z,1011.08
2018-07-12T04:47:45.101Z,1011.12
2018-07-12T04:48:11.241Z,1011.09
2018-07-12T04:48:37.402Z,1011.09
2018-07-12T04:49:03.536Z,1011.1
2018-07-12T04:49:29.670Z,1011.12
2018-07-12T04:49:55.817Z,1011.11
2018-07-12T04:50:21.952Z,1011.13
2018-07-12T04:50:48.107Z,1011.2
2018-07-12T04:51:14.282Z,1011.16
2018-07-12T04:51:40.379Z,1011.15
2018-07-12T04:52:06.520Z,1011.13
2018-07-12T04:52:32.681Z,1011.14
2018-07-12T04:52:58.816Z,1011.11
2018-07-12T04:53:24.951Z,1011.08
2018-07-12T04:53:51.085Z,1011.05
2018-07-12T04:54:17.222Z,1011
2018-07-12T04:54:43.386Z,1010.98
2018-07-12T04:55:09.519Z,1010.98
2018-07-12T04:55:35.661Z,1011.01
2018-07-12T04:56:01.793Z,1011.01
2018-07-12T04:56:27.931Z,1011.03
2018-07-12T04:56:54.073Z,1010.99
2018-07-12T04:57:20.214Z,1011.01
2018-07-12T04:57:46.342Z,1011
2018-07-12T04:58:12.554Z,1011
2018-07-12T04:58:38.621Z,1011.06
2018-07-12T04:59:04.764Z,1011.08
2018-07-12T04:59:30.906Z,1011.03
2018-07-12T04:59:57.068Z,1011.08
2018-07-12T05:00:23.230Z,1011.05
2018-07-12T05:00:49.374Z,1011.05
2018-07-12T05:01:15.510Z,1011.05
2018-07-12T05:01:41.651Z,1011.04
2018-07-12T05:02:07.787Z,1011.05
2018-07-12T05:02:33.928Z,1011.03
2018-07-12T05:03:00.072Z,1010.99
2018-07-12T05:03:26.235Z,1011.02
2018-07-12T05:03:52.397Z,1011.02
2018-07-12T05:04:18.559Z,1011.06
2018-07-12T05:04:44.693Z,1011.04
2018-07-12T05:05:10.835Z,1011.05
2018-07-12T05:05:36.973Z,1011.04
2018-07-12T05:06:03.117Z,1011.03
2018-07-12T05:06:29.277Z,1011.05
2018-07-12T05:06:55.412Z,1010.96
2018-07-12T05:07:21.546Z,1011
2018-07-12T05:07:47.681Z,1010.98
2018-07-12T05:08:13.888Z,1010.96
2018-07-12T05:08:40.010Z,1010.96
2018-07-12T05:09:06.150Z,1010.96
2018-07-12T05:09:32.321Z,1010.97
2018-07-12T05:09:58.481Z,1010.98
2018-07-12T05:10:24.617Z,1011
2018-07-12T05:10:50.774Z,1011.01
2018-07-12T05:11:16.912Z,1011
2018-07-12T05:11:43.047Z,1010.98
2018-07-12T05:12:09.215Z,1011.03
2018-07-12T05:12:35.350Z,1011
2018-07-12T05:13:01.494Z,1011.02
2018-07-12T05:13:27.655Z,1011.06
2018-07-12T05:13:53.820Z,1011.06
2018-07-12T05:14:19.964Z,1011.01
2018-07-12T05:14:46.095Z,1011.03
2018-07-12T05:15:12.246Z,1011.05
2018-07-12T05:15:38.380Z,1011.05
2018-07-12T05:16:04.589Z,1011.02
2018-07-12T05:16:30.680Z,1011.06
2018-07-12T05:16:56.813Z,1011.07
2018-07-12T05:17:22.951Z,1011.05
2018-07-12T05:17:49.090Z,1011.03